Latest Weather Observations for Alice Springs Airport

IDD60801

Issued at 1:05 pm CST Sunday 26 October 2014 (issued every 30 minutes, with the page automatically refreshed every 10 minutes)

About weather observations | Map of weather stations | Latest weather observations for NT | Other Formats
Station Details ID: 015590 Name: ALICE SPRINGS AIRPORT Lat: -23.80 Lon: 133.89 Height: 546.0 m
Data from the previous 72 hours. | See also: Recent months at Alice Springs Airport
Date/Time
CST
Temp
°C
App
Temp
°C
Dew
Point
Rel
Hum
%
Delta-T
°C
Wind Press
QNH
hPa
Press
MSL
hPa
Rain
since 9 am
mm
Dir
 
Spd
km/h
Gust
km/h
Spd
kts
Gust
kts
26/01:00pm 37.7 33.2 -0.5 9 19.5 N 13 26 7 14 1015.2 1012.5 0.0
26/12:30pm 37.0 30.4 -0.3 9 19.0 NNW 24 43 13 23 1015.8 1013.1 0.0
26/12:00pm 37.4 32.0 -1.0 9 19.4 N 17 32 9 17 1016.5 1013.7 0.0
26/11:30am 36.6 30.9 -0.5 9 18.8 N 19 33 10 18 1017.1 1014.4 0.0
26/11:00am 36.4 30.2 -0.2 10 18.6 N 22 37 12 20 1017.5 1014.8 0.0
26/10:30am 36.2 29.0 1.0 11 18.2 N 28 37 15 20 1018.0 1015.2 0.0
26/10:00am 35.8 28.1 -0.1 10 18.2 N 30 43 16 23 1018.3 1015.6 0.0
26/09:30am 34.9 28.2 -0.8 10 17.8 N 24 32 13 17 1018.4 1015.7 0.0
26/09:00am 33.3 26.3 -0.7 11 16.8 N 26 33 14 18 1018.6 1015.9 0.0
26/08:30am 32.7 26.5 -0.5 12 16.4 N 22 35 12 19 1018.5 1015.8 0.0
26/08:00am 31.2 25.7 -1.8 12 15.8 N 17 22 9 12 1018.4 1015.7 0.0
26/07:30am 29.4 24.1 -3.5 11 15.1 N 15 20 8 11 1018.2 1015.4 0.0
26/07:00am 28.0 22.2 -5.1 11 14.6 NNW 17 20 9 11 1018.0 1015.2 0.0
26/06:30am 27.4 21.6 -4.7 12 14.2 N 17 20 9 11 1017.4 1014.7 0.0
26/06:00am 26.1 21.1 -1.5 16 12.8 NNW 15 19 8 10 1017.0 1014.3 0.0
26/05:30am 26.5 21.1 -1.0 16 12.9 N 17 20 9 11 1016.7 1014.0 0.0
26/05:00am 27.3 22.7 -1.1 15 13.4 N 13 17 7 9 1016.5 1013.7 0.0
26/04:30am 27.5 22.1 -1.5 15 13.6 N 17 22 9 12 1016.2 1013.4 0.0
26/04:00am 28.7 23.1 -2.5 13 14.5 N 17 26 9 14 1016.1 1013.3 0.0
26/03:30am 28.1 23.1 -0.9 15 13.8 N 15 20 8 11 1016.0 1013.2 0.0
26/03:00am 27.2 23.2 0.3 17 13.0 N 11 19 6 10 1015.8 1013.1 0.0
26/02:30am 29.4 26.0 -2.0 13 14.8 NNE 6 11 3 6 1016.1 1013.3 0.0
26/02:00am 29.4 24.4 -1.1 14 14.6 NNE 15 20 8 11 1016.2 1013.4 0.0
26/01:30am 30.2 25.6 -1.3 13 15.1 NE 13 19 7 10 1016.4 1013.6 0.0
26/01:00am 26.5 23.0 1.4 19 12.3 NE 9 11 5 6 1016.7 1014.0 0.0
26/12:30am 26.7 23.7 4.2 23 11.6 NE 9 11 5 6 1016.9 1014.2 0.0
26/12:00am 27.7 24.1 0.6 17 13.2 NE 9 13 5 7 1017.0 1014.3 0.0
 
Date/Time
CST
Temp
°C
App
Temp
°C
Dew
Point
Rel
Hum
%
Delta-T
°C
Wind Press
QNH
hPa
Press
MSL
hPa
Rain
since 9 am
mm
Dir
 
Spd
km/h
Gust
km/h
Spd
kts
Gust
kts
25/11:30pm 28.2 24.1 -0.3 15 13.7 NE 11 15 6 8 1017.3 1014.6 0.0
25/11:00pm 28.3 24.3 0.4 16 13.6 NE 11 15 6 8 1017.5 1014.8 0.0
25/10:30pm 27.8 23.5 1.2 18 13.1 NE 13 17 7 9 1017.6 1014.9 0.0
25/10:00pm 27.7 23.9 1.7 18 12.9 NE 11 15 6 8 1017.5 1014.8 0.0
25/09:30pm 28.3 24.6 2.3 18 13.1 NE 11 13 6 7 1017.3 1014.6 0.0
25/09:00pm 29.1 25.0 -0.2 15 14.2 ENE 11 13 6 7 1017.3 1014.6 0.0
25/08:30pm 29.3 25.1 1.5 16 13.9 ENE 13 15 7 8 1017.0 1014.3 0.0
25/08:00pm 29.6 25.5 2.2 17 13.9 E 13 15 7 8 1016.7 1014.0 0.0
25/07:30pm 31.1 27.4 2.6 16 14.7 E 11 13 6 7 1016.5 1013.7 0.0
25/07:00pm 32.9 28.7 1.8 14 16.0 E 13 15 7 8 1016.0 1013.2 0.0
25/06:30pm 35.0 29.8 0.0 11 17.7 E 17 22 9 12 1015.5 1012.8 0.0
25/06:00pm 36.2 30.8 -1.7 9 18.8 ESE 17 24 9 13 1015.3 1012.6 0.0
25/05:30pm 36.4 32.1 1.2 11 18.3 ESE 13 26 7 14 1015.1 1012.4 0.0
25/05:00pm 36.8 30.8 -3.4 7 19.5 E 19 33 10 18 1015.0 1012.3 0.0
25/04:30pm 37.0 34.3 2.8 12 18.3 NNE 6 11 3 6 1015.0 1012.3 0.0
25/04:00pm 37.2 32.4 -0.1 9 19.1 SE 15 22 8 12 1015.1 1012.4 0.0
25/03:30pm 37.5 34.5 0.7 10 19.1 NE 6 - 3 - - 1012.5 -
25/03:00pm 37.6 30.4 -1.9 8 19.7 E 26 33 14 18 1015.6 1012.9 0.0
25/02:30pm 37.3 31.2 -2.3 8 19.6 NE 20 30 11 16 1016.2 1013.4 0.0
25/02:00pm 37.4 30.5 -2.5 8 19.7 ENE 24 33 13 18 1016.6 1013.8 0.0
25/01:30pm 36.7 32.5 -0.7 9 18.9 ESE 11 19 6 10 1016.9 1014.2 0.0
25/01:00pm 36.4 28.7 -2.7 8 19.1 ENE 28 39 15 21 1017.5 1014.8 0.0
25/12:30pm 36.4 30.4 -1.2 9 18.8 NNE 20 33 11 18 1018.1 1015.3 0.0
25/12:00pm 36.1 29.6 -2.1 9 18.8 NE 22 30 12 16 1018.6 1015.9 0.0
25/11:30am 35.1 28.9 -3.2 8 18.4 NNE 20 33 11 18 1019.2 1016.5 0.0
25/11:00am 35.3 29.7 -3.1 8 18.5 NNE 17 26 9 14 1019.7 1017.0 0.0
25/10:30am 35.0 29.6 -1.5 10 18.0 N 17 26 9 14 1020.0 1017.3 0.0
25/10:00am 35.6 29.2 -1.7 9 18.4 NNE 22 33 12 18 1020.1 1017.4 0.0
25/09:30am 34.0 27.5 -2.5 9 17.6 NNE 22 32 12 17 1020.2 1017.5 0.0
25/09:00am 33.9 27.9 -1.8 10 17.4 N 20 32 11 17 1020.3 1017.6 0.0
25/08:30am 32.5 26.2 -1.1 11 16.4 NNE 22 30 12 16 1020.2 1017.5 0.0
25/08:00am 31.2 26.6 -1.0 12 15.6 NNE 13 20 7 11 1020.2 1017.5 0.0
25/07:30am 28.5 25.4 0.4 16 13.7 SSE 6 9 3 5 1019.9 1017.1 0.0
25/07:00am 25.2 23.5 1.6 21 11.5 CALM 0 0 0 0 1019.5 1016.8 0.0
25/06:53am 27.0 28.2 13.8 44 8.0 CALM 0 0 0 0 1019.4 1016.7 0.0
25/06:30am 21.1 19.3 1.0 26 9.4 CALM 0 0 0 0 1019.1 1016.4 0.0
25/06:00am 21.3 19.2 -0.5 23 9.9 CALM 0 0 0 0 1018.7 1016.0 0.0
25/05:30am 20.4 18.7 1.7 29 8.8 CALM 0 0 0 0 1018.3 1015.6 0.0
25/05:00am 20.1 18.1 -0.2 25 9.2 CALM 0 0 0 0 1018.1 1015.3 0.0
25/04:30am 20.5 18.8 1.6 28 8.9 CALM 0 0 0 0 1017.6 1014.9 0.0
25/04:00am 20.2 18.2 0.0 26 9.2 CALM 0 0 0 0 1017.3 1014.6 0.0
25/03:30am 20.4 18.8 2.7 31 8.5 CALM 0 0 0 0 1017.1 1014.4 0.0
25/03:00am 20.8 18.9 0.8 26 9.3 CALM 0 0 0 0 1016.8 1014.1 0.0
25/02:30am 23.0 19.5 1.5 24 10.3 ENE 9 9 5 5 1016.8 1014.1 0.0
25/02:00am 21.6 20.0 2.3 28 9.3 CALM 0 0 0 0 1016.9 1014.2 0.0
25/01:30am 22.8 21.4 3.8 29 9.5 CALM 0 0 0 0 1017.0 1014.3 0.0
25/01:00am 23.4 21.9 3.2 26 10.0 CALM 0 0 0 0 1017.3 1014.6 0.0
25/12:30am 23.8 21.7 1.6 23 10.7 SSE 2 6 1 3 1017.4 1014.7 0.0
25/12:00am 23.4 20.1 2.6 25 10.2 E 9 9 5 5 1017.5 1014.8 0.0
 
Date/Time
CST
Temp
°C
App
Temp
°C
Dew
Point
Rel
Hum
%
Delta-T
°C
Wind Press
QNH
hPa
Press
MSL
hPa
Rain
since 9 am
mm
Dir
 
Spd
km/h
Gust
km/h
Spd
kts
Gust
kts
24/11:30pm 24.0 20.2 -0.6 19 11.4 ENE 9 9 5 5 1017.6 1014.9 0.0
24/11:00pm 26.9 23.4 1.5 19 12.5 ENE 9 9 5 5 1017.6 1014.9 0.0
24/10:30pm 29.7 25.8 -1.3 13 14.8 NE 9 11 5 6 1017.6 1014.9 0.0
24/10:00pm 28.7 24.7 0.5 16 13.8 NE 11 13 6 7 1017.5 1014.8 0.0
24/09:30pm 29.0 25.2 1.6 17 13.7 NE 11 15 6 8 1017.4 1014.7 0.0
24/09:00pm 28.2 24.1 2.1 18 13.1 NE 13 15 7 8 1017.3 1014.6 0.0
24/08:30pm 28.8 24.7 0.0 15 14.0 NE 11 13 6 7 1016.8 1014.1 0.0
24/08:00pm 29.4 25.4 0.6 15 14.2 E 11 13 6 7 1016.2 1013.4 0.0
24/07:30pm 32.0 28.1 -1.4 11 16.2 E 9 13 5 7 1015.7 1013.0 0.0
24/07:00pm 32.2 28.2 0.5 13 15.9 E 11 15 6 8 1015.4 1012.7 0.0
24/06:30pm 33.7 29.2 -0.4 11 17.0 E 13 17 7 9 1015.0 1012.3 0.0
24/06:00pm 35.7 29.9 -4.4 7 19.0 E 17 22 9 12 1014.8 1012.0 0.0
24/05:30pm 36.0 31.2 -2.3 8 18.8 SE 13 22 7 12 1014.6 1011.8 0.0
24/05:00pm 35.8 31.5 -1.4 9 18.5 ENE 11 17 6 9 1014.5 1011.7 0.0
24/04:30pm 36.5 30.3 -4.4 7 19.5 ENE 19 32 10 17 1014.5 1011.7 0.0
24/04:00pm 36.6 30.7 -2.4 8 19.2 NE 19 26 10 14 1014.7 1011.9 0.0
24/03:30pm 35.4 30.6 -2.6 9 18.5 E 13 19 7 10 1014.8 1012.0 0.0
24/03:00pm 36.9 31.5 -1.5 9 19.2 ESE 17 32 9 17 1015.0 1012.3 0.0
24/02:30pm 36.6 31.8 -2.5 8 19.2 E 13 24 7 13 1015.3 1012.6 0.0
24/02:00pm 36.5 31.7 -2.3 8 19.1 NE 13 32 7 17 1015.6 1012.9 0.0
24/01:30pm 36.8 31.9 -0.4 9 18.9 NE 15 28 8 15 1016.2 1013.4 0.0
24/01:00pm 36.5 30.5 -1.8 9 19.0 NE 20 30 11 16 1016.6 1013.8 0.0
24/12:30pm 35.8 29.9 -1.0 9 18.4 NNW 20 32 11 17 1017.1 1014.4 0.0
24/12:00pm 36.0 28.7 -2.9 8 18.9 N 26 35 14 19 1017.5 1014.8 0.0
24/11:30am 35.6 29.6 -3.2 8 18.7 NNE 19 33 10 18 1018.1 1015.3 0.0
24/11:00am 35.2 28.7 0.1 11 17.8 NNE 24 35 13 19 1018.4 1015.7 0.0
24/10:30am 34.3 27.3 -0.6 11 17.4 N 26 35 14 19 1018.7 1016.0 0.0
24/10:00am 33.4 25.5 0.9 12 16.5 N 32 41 17 22 1018.8 1016.1 0.0
24/09:30am 33.3 26.2 1.1 13 16.4 N 28 35 15 19 1018.9 1016.2 0.0
24/09:00am 31.7 25.0 1.2 14 15.4 N 26 37 14 20 1019.0 1016.3 0.0
24/08:30am 30.2 23.5 1.2 15 14.5 N 26 35 14 19 1018.8 1016.1 0.0
24/08:00am 28.9 22.5 1.0 16 13.8 N 24 33 13 18 1018.6 1015.9 0.0
24/07:30am 28.5 23.0 0.4 16 13.7 N 19 24 10 13 1018.5 1015.8 0.0
24/07:00am 27.6 23.0 -1.3 15 13.6 N 13 19 7 10 1018.3 1015.6 0.0
24/06:30am 27.4 21.5 -0.9 15 13.4 N 20 28 11 15 1017.9 1015.1 0.0
24/06:00am 27.1 20.3 -1.7 15 13.4 N 24 32 13 17 1017.5 1014.8 0.0
24/05:30am 26.4 20.8 -3.0 14 13.3 N 17 24 9 13 1017.3 1014.6 0.0
24/05:00am 26.4 20.5 -2.5 15 13.2 N 19 26 10 14 1016.9 1014.2 0.0
24/04:30am 26.0 20.9 -1.7 16 12.8 N 15 20 8 11 1016.6 1013.8 0.0
24/04:00am 26.5 21.7 -2.7 14 13.3 N 13 20 7 11 1016.4 1013.6 0.0
24/03:30am 28.2 25.2 -5.5 10 14.8 NNE 2 6 1 3 1016.2 1013.4 0.0
24/03:00am 27.6 24.3 -4.1 12 14.2 NE 4 11 2 6 1016.1 1013.3 0.0
24/02:30am 27.9 23.7 -4.3 12 14.4 N 9 11 5 6 1016.2 1013.4 0.0
24/02:00am 28.2 23.5 -5.5 10 14.8 N 11 15 6 8 1016.3 1013.5 0.0
24/01:30am 28.1 24.1 -5.3 11 14.7 NNE 7 11 4 6 1016.4 1013.6 0.0
24/01:00am 23.6 21.4 -1.4 19 11.4 CALM 0 0 0 0 1016.8 1014.1 0.0
24/12:30am 23.0 20.4 -1.6 19 11.1 ESE 2 6 1 3 1017.0 1014.3 0.0
24/12:00am 25.2 23.1 -1.1 17 12.2 CALM 0 7 0 4 1017.1 1014.4 0.0
 
Date/Time
CST
Temp
°C
App
Temp
°C
Dew
Point
Rel
Hum
%
Delta-T
°C
Wind Press
QNH
hPa
Press
MSL
hPa
Rain
since 9 am
mm
Dir
 
Spd
km/h
Gust
km/h
Spd
kts
Gust
kts
23/11:30pm 25.6 21.6 0.6 19 12.0 NE 11 11 6 6 1017.3 1014.6 0.0
23/11:00pm 25.8 22.1 -0.1 18 12.3 NE 9 11 5 6 1017.4 1014.7 0.0
23/10:30pm 26.7 22.1 -1.4 16 13.1 NE 13 15 7 8 1017.5 1014.8 0.0
23/10:00pm 28.0 23.6 -2.5 13 14.1 NNE 11 15 6 8 1017.5 1014.8 0.0
23/09:30pm 28.1 23.6 -3.2 12 14.3 NE 11 15 6 8 1017.2 1014.5 0.0
23/09:00pm 27.8 23.8 -2.6 13 14.0 ENE 9 11 5 6 1017.0 1014.3 0.0
23/08:30pm 28.1 24.5 0.7 17 13.4 NE 9 15 5 8 1016.6 1013.8 0.0
23/08:00pm 28.9 24.9 0.2 15 14.0 E 11 11 6 6 1016.2 1013.4 0.0
23/07:30pm 29.4 26.2 1.0 16 14.1 E 7 9 4 5 1015.8 1013.1 0.0
23/07:00pm 30.5 26.6 1.2 15 14.7 ENE 11 15 6 8 1015.3 1012.6 0.0
23/06:30pm 32.4 29.4 1.8 14 15.7 ENE 7 9 4 5 1015.1 1012.4 0.0
23/06:00pm 34.7 30.7 -2.2 9 18.0 E 9 11 5 6 1014.7 1011.9 0.0
23/05:30pm 35.3 29.2 -2.4 9 18.4 E 20 28 11 15 1014.4 1011.6 0.0
23/05:00pm 36.4 31.0 -4.2 7 19.4 ESE 15 28 8 15 1014.3 1011.5 0.0
23/04:30pm 36.0 30.2 -4.5 7 19.2 E 17 33 9 18 1014.4 1011.6 0.0
23/04:00pm 36.6 32.1 -3.0 8 19.3 E 11 15 6 8 1014.4 1011.6 0.0
23/03:30pm 36.7 30.9 -4.9 7 19.7 N 17 26 9 14 1014.5 1011.7 0.0
23/03:00pm 36.4 31.3 0.8 10 18.4 NE 17 28 9 15 1014.7 1011.9 0.0
23/02:30pm 35.8 30.7 -1.9 9 18.6 NNE 15 30 8 16 1015.1 1012.4 0.0
23/02:05pm 36.3 27.7 -2.4 8 19.0 E 33 44 18 24 1015.2 1012.5 0.0
23/02:00pm 36.2 31.6 -4.4 7 19.3 E 11 17 6 9 1015.2 1012.5 0.0
23/01:30pm 35.9 29.3 -3.2 8 18.9 NNE 22 35 12 19 1015.7 1013.0 0.0

Other Formats:

Comma delimited format used in spreadsheet applications
http://www.bom.gov.au/fwo/IDD60801/IDD60801.94326.axf

JavaScript Object Notation format (JSON) in row-major order
http://www.bom.gov.au/fwo/IDD60801/IDD60801.94326.json